Time;durP1;ratioP1;P1;durP2;ratioP2;P2;SDS_P1;SDS_P2;PMS_P1;PMS_P2;Temp;Humidity;BMP_temperature;BMP_pressure;BME280_temperature;BME280_humidity;BME280_pressure;Samples;Min_cycle;Max_cycle;Signal;HPM_P1;HPM_P2
2022/07/16 00:03:02;;;;;;;5.9;5.1;;;;;;;17.95;80.99121;941.2866;;;;
2022/07/16 00:05:47;;;;;;;5.8;5;;;;;;;17.9;81.19043;941.2592;;;;
2022/07/16 00:08:16;;;;;;;6.5;5;;;;;;;17.86;79.65234;941.2686;;;;
2022/07/16 00:10:47;;;;;;;7.4;4.7;;;;;;;17.94;78.98047;941.2698;;;;
2022/07/16 00:13:23;;;;;;;5.6;4.7;;;;;;;17.96;78.29883;941.26;;;;
2022/07/16 00:16:09;;;;;;;4.7;4.2;;;;;;;17.96;77.82227;941.3052;;;;
2022/07/16 00:21:15;;;;;;;4.7;3.8;;;;;;;17.98;75.63184;941.3072;;;;
2022/07/16 00:23:52;;;;;;;5.2;4.2;;;;;;;17.99;76.48145;941.3167;;;;
2022/07/16 00:26:30;;;;;;;6;4.2;;;;;;;17.9;76.96387;941.2978;;;;
2022/07/16 00:29:07;;;;;;;6.5;4.4;;;;;;;17.65;78.16211;941.3191;;;;
2022/07/16 00:31:34;;;;;;;5.7;4.6;;;;;;;17.51;79.03223;941.2972;;;;
2022/07/16 00:33:59;;;;;;;4.8;4.3;;;;;;;17.42;79.52441;941.3287;;;;
2022/07/16 00:36:45;;;;;;;4.9;4.4;;;;;;;17.32;78.92773;941.2718;;;;
2022/07/16 00:39:11;;;;;;;5.1;4.5;;;;;;;17.22;79.12891;941.3226;;;;
2022/07/16 00:41:40;;;;;;;5.5;4.2;;;;;;;17.24;78.87891;941.3066;;;;
2022/07/16 00:44:08;;;;;;;4.9;4.3;;;;;;;17.29;78.59668;941.2078;;;;
2022/07/16 00:46:33;;;;;;;4.9;4.1;;;;;;;17.37;78.78418;941.1376;;;;
2022/07/16 00:49:00;;;;;;;4.9;4.1;;;;;;;17.42;78.15723;941.2098;;;;
2022/07/16 00:51:25;;;;;;;7.7;4.4;;;;;;;17.43;77.14941;941.2475;;;;
2022/07/16 00:53:51;;;;;;;5.4;4.2;;;;;;;17.32;77.26953;941.2413;;;;
2022/07/16 00:56:16;;;;;;;7;4.3;;;;;;;17.32;77.81445;941.267;;;;
2022/07/16 00:58:44;;;;;;;6.4;4.7;;;;;;;17.26;78.29102;941.2589;;;;
2022/07/16 01:01:09;;;;;;;5.9;4.3;;;;;;;17.25;78.20801;941.2438;;;;
2022/07/16 01:03:37;;;;;;;5.6;4.8;;;;;;;17.18;78.94824;941.1258;;;;
2022/07/16 01:06:02;;;;;;;5.8;4.6;;;;;;;17.21;78.72168;941.2045;;;;
2022/07/16 01:08:29;;;;;;;5.1;4.6;;;;;;;17.18;78.9834;941.2031;;;;
2022/07/16 01:10:54;;;;;;;5.4;4.3;;;;;;;17.2;78.16309;941.2296;;;;
2022/07/16 01:13:21;;;;;;;5;4.5;;;;;;;17.19;78.45313;941.1917;;;;
2022/07/16 01:15:51;;;;;;;4.7;4.2;;;;;;;17.22;78.51563;941.2391;;;;
2022/07/16 01:18:18;;;;;;;5.1;4.4;;;;;;;17.22;78.41211;941.2609;;;;
2022/07/16 01:20:43;;;;;;;5.7;4.4;;;;;;;17.24;78.43848;941.2921;;;;
2022/07/16 01:23:10;;;;;;;5.4;4.7;;;;;;;17.24;78.94824;941.2446;;;;
2022/07/16 01:25:35;;;;;;;6.6;4.4;;;;;;;17.23;78.28613;941.2737;;;;
2022/07/16 01:28:02;;;;;;;6.6;4.7;;;;;;;17.21;78.54785;941.2625;;;;
2022/07/16 01:30:27;;;;;;;6;4.7;;;;;;;17.16;79.20996;941.2806;;;;
2022/07/16 01:32:56;;;;;;;5.3;4.8;;;;;;;17.12;78.91602;941.2449;;;;
2022/07/16 01:35:24;;;;;;;5.3;4.8;;;;;;;17.04;79.30469;941.2595;;;;
2022/07/16 01:37:49;;;;;;;6.6;5;;;;;;;16.91;79.59473;941.2878;;;;
2022/07/16 01:40:17;;;;;;;5.3;4.5;;;;;;;16.79;78.97168;941.3547;;;;
2022/07/16 01:42:45;;;;;;;6.2;4.8;;;;;;;16.78;79.22461;941.3314;;;;
2022/07/16 01:45:13;;;;;;;6.1;4.5;;;;;;;16.77;79.55859;941.4079;;;;
2022/07/16 01:47:41;;;;;;;4.9;4.4;;;;;;;16.51;78.44434;941.3686;;;;
2022/07/16 01:50:11;;;;;;;7.3;5.1;;;;;;;16.44;79.94922;941.4472;;;;
2022/07/16 01:52:36;;;;;;;6.1;4.5;;;;;;;16.45;80.08984;941.3908;;;;
2022/07/16 01:55:04;;;;;;;6.9;4.9;;;;;;;16.49;79.85547;941.392;;;;
2022/07/16 01:57:29;;;;;;;4.9;4.4;;;;;;;16.56;79.56738;941.3923;;;;
2022/07/16 01:59:59;;;;;;;5.2;4.7;;;;;;;16.59;79.61914;941.3679;;;;
2022/07/16 02:02:27;;;;;;;5.7;4.9;;;;;;;16.59;80.40625;941.3639;;;;
2022/07/16 02:04:52;;;;;;;6.9;5.1;;;;;;;16.63;80.2041;941.3879;;;;
2022/07/16 02:07:20;;;;;;;6.5;4.7;;;;;;;16.68;79.9707;941.4384;;;;
2022/07/16 02:09:44;;;;;;;7.8;4.4;;;;;;;16.71;79.65332;941.4559;;;;
2022/07/16 02:12:11;;;;;;;15;5;;;;;;;16.71;79.23438;941.468;;;;
2022/07/16 02:14:36;;;;;;;8.1;5.7;;;;;;;16.7;80.47266;941.4085;;;;
2022/07/16 02:17:02;;;;;;;5.4;4.9;;;;;;;16.75;80.78125;941.4556;;;;
2022/07/16 02:19:28;;;;;;;6.8;5.2;;;;;;;16.8;80.72168;941.4623;;;;
2022/07/16 02:21:53;;;;;;;6.3;4.9;;;;;;;16.85;80.57031;941.4702;;;;
2022/07/16 02:24:19;;;;;;;6.4;5.3;;;;;;;16.9;80.25391;941.5179;;;;
2022/07/16 02:26:44;;;;;;;6.2;4.6;;;;;;;16.89;80.00879;941.5583;;;;
2022/07/16 02:29:13;;;;;;;6.3;4.6;;;;;;;16.84;78.95605;941.5178;;;;
2022/07/16 02:31:38;;;;;;;6.9;4.5;;;;;;;16.81;78.88184;941.5266;;;;
2022/07/16 02:34:04;;;;;;;4.9;4.4;;;;;;;16.82;78.64063;941.5349;;;;
2022/07/16 02:36:29;;;;;;;4.9;4.4;;;;;;;16.78;78.61035;941.5115;;;;
2022/07/16 02:38:56;;;;;;;6.8;4.5;;;;;;;16.75;78.78906;941.4708;;;;
2022/07/16 02:41:21;;;;;;;6.6;4.8;;;;;;;16.68;78.91699;941.4738;;;;
2022/07/16 02:43:47;;;;;;;6.2;5.2;;;;;;;16.64;79.37402;941.465;;;;
2022/07/16 02:46:12;;;;;;;5.7;4.8;;;;;;;16.62;80.13281;941.4741;;;;
2022/07/16 02:48:42;;;;;;;5.2;4.7;;;;;;;16.61;79.74902;941.5076;;;;
2022/07/16 02:51:08;;;;;;;6.1;4.7;;;;;;;16.53;79.2002;941.4827;;;;
2022/07/16 02:53:34;;;;;;;5.5;4.4;;;;;;;16.45;78.81738;941.5485;;;;
2022/07/16 02:55:59;;;;;;;4.5;3.9;;;;;;;16.21;77.57227;941.5688;;;;
2022/07/16 02:58:29;;;;;;;5.2;3.7;;;;;;;16.07;78.08984;941.5634;;;;
2022/07/16 03:00:54;;;;;;;5.8;4.1;;;;;;;15.86;78.60742;941.5812;;;;
2022/07/16 03:03:23;;;;;;;4.9;4.1;;;;;;;15.82;78.55273;941.6191;;;;
2022/07/16 03:05:54;;;;;;;6;4.3;;;;;;;15.71;79.76953;941.5953;;;;
2022/07/16 03:08:23;;;;;;;5.1;4.6;;;;;;;15.64;80.3457;941.5933;;;;
2022/07/16 03:10:48;;;;;;;6.2;4.6;;;;;;;15.67;80.15625;941.5739;;;;
2022/07/16 03:13:14;;;;;;;5.8;4.6;;;;;;;15.7;80.49609;941.6203;;;;
2022/07/16 03:15:47;;;;;;;7.8;5.3;;;;;;;15.65;81.25;941.5811;;;;
2022/07/16 03:18:13;;;;;;;5.4;4.9;;;;;;;15.65;81.08887;941.5715;;;;
2022/07/16 03:20:38;;;;;;;5.8;4.7;;;;;;;15.64;81.89355;941.5796;;;;
2022/07/16 03:23:03;;;;;;;5.5;4.9;;;;;;;15.62;81.8457;941.5403;;;;
2022/07/16 03:25:30;;;;;;;6.9;5.1;;;;;;;15.67;82.05078;941.5706;;;;
2022/07/16 03:27:55;;;;;;;6;5;;;;;;;15.66;82.11816;941.5097;;;;
2022/07/16 03:30:24;;;;;;;7.1;5.1;;;;;;;15.69;81.9043;941.5545;;;;
2022/07/16 03:32:49;;;;;;;7;5.4;;;;;;;15.72;81.64551;941.5599;;;;
2022/07/16 03:35:17;;;;;;;6.2;5.6;;;;;;;15.75;82.11035;941.5598;;;;
2022/07/16 03:38:59;;;;;;;8;5.5;;;;;;;15.81;81.69629;941.5602;;;;
2022/07/16 03:40:07;;;;;;;5.6;5.1;;;;;;;15.87;81.58008;941.6799;;;;
2022/07/16 03:42:38;;;;;;;6.1;4.9;;;;;;;15.89;81.7334;941.6332;;;;
2022/07/16 03:45:04;;;;;;;5.6;5;;;;;;;15.87;82.06543;941.6453;;;;
2022/07/16 03:47:31;;;;;;;5.6;4.5;;;;;;;15.86;81.91309;941.5603;;;;
2022/07/16 03:49:56;;;;;;;6.4;5.6;;;;;;;15.88;82.10156;941.6067;;;;
2022/07/16 03:52:25;;;;;;;6.3;5;;;;;;;15.81;82.51563;941.6044;;;;
2022/07/16 03:54:50;;;;;;;6.7;5.1;;;;;;;15.82;82.56543;941.6528;;;;
2022/07/16 03:57:17;;;;;;;5.1;4.6;;;;;;;15.81;82.38867;941.7112;;;;
2022/07/16 03:59:42;;;;;;;7;4.8;;;;;;;15.72;81.27539;941.7004;;;;
2022/07/16 04:03:27;;;;;;;6.1;4.7;;;;;;;15.79;80.97656;941.7434;;;;
2022/07/16 04:05:58;;;;;;;5.9;4.7;;;;;;;15.89;81.09766;941.7456;;;;
2022/07/16 04:08:43;;;;;;;5.9;4.7;;;;;;;15.92;81.21973;941.7823;;;;
2022/07/16 04:11:13;;;;;;;5.4;4.9;;;;;;;15.85;80.3623;941.7547;;;;
2022/07/16 04:13:24;;;;;;;5.5;5;;;;;;;15.8;80.49316;941.7836;;;;
2022/07/16 04:15:53;;;;;;;6.7;5.1;;;;;;;15.73;81.0332;941.7766;;;;
2022/07/16 04:18:19;;;;;;;6.5;5.1;;;;;;;15.74;81.02441;941.7381;;;;
2022/07/16 04:20:46;;;;;;;6.6;5.1;;;;;;;15.62;81.87891;941.7307;;;;
2022/07/16 04:23:16;;;;;;;5.4;4.9;;;;;;;15.53;82.38379;941.8066;;;;
2022/07/16 04:25:41;;;;;;;8.3;6.1;;;;;;;15.57;82.20605;941.825;;;;
2022/07/16 04:28:06;;;;;;;7.1;5;;;;;;;15.56;82.98926;941.8081;;;;
2022/07/16 04:30:31;;;;;;;5.7;5.1;;;;;;;15.53;83.76758;941.854;;;;
2022/07/16 04:33:03;;;;;;;6.3;5.2;;;;;;;15.62;83.4043;941.88;;;;
2022/07/16 04:35:33;;;;;;;6.1;5;;;;;;;15.75;83.77637;941.8657;;;;
2022/07/16 04:37:59;;;;;;;6.7;5.5;;;;;;;15.75;83.55469;941.8569;;;;
2022/07/16 04:40:24;;;;;;;5.5;5;;;;;;;15.84;82.25684;941.892;;;;
2022/07/16 04:42:53;;;;;;;5.7;5;;;;;;;15.95;81.6543;941.9364;;;;
2022/07/16 04:45:18;;;;;;;5.6;4.9;;;;;;;15.98;81.80957;941.8912;;;;
2022/07/16 04:47:48;;;;;;;6.6;5.3;;;;;;;16.06;82.48242;941.9473;;;;
2022/07/16 04:50:19;;;;;;;7.5;5.7;;;;;;;16.2;81.47852;941.916;;;;
2022/07/16 04:52:50;;;;;;;5.6;5;;;;;;;16.35;79.50488;941.9169;;;;
2022/07/16 04:55:15;;;;;;;5.5;4.5;;;;;;;16.49;78.73242;941.8374;;;;
2022/07/16 04:57:43;;;;;;;6;4.7;;;;;;;16.58;78.30762;941.9203;;;;
2022/07/16 05:00:08;;;;;;;5.5;4.6;;;;;;;16.7;79.29102;941.9256;;;;
2022/07/16 05:05:03;;;;;;;5.5;4.4;;;;;;;17.1;77.1377;941.938;;;;
2022/07/16 05:07:28;;;;;;;6.2;5.1;;;;;;;17.19;76.13281;941.9539;;;;
2022/07/16 05:09:53;;;;;;;6.3;5;;;;;;;17.16;75.57227;941.9268;;;;
2022/07/16 05:12:18;;;;;;;6.7;4.6;;;;;;;17.39;76.95605;941.9199;;;;
2022/07/16 05:14:43;;;;;;;6.2;4.7;;;;;;;17.9;74.96582;941.9803;;;;
2022/07/16 05:17:08;;;;;;;6.1;4.5;;;;;;;18.43;71.69727;941.9673;;;;
2022/07/16 05:19:36;;;;;;;4.9;4.4;;;;;;;18.55;72.09082;942.0162;;;;
2022/07/16 05:22:02;;;;;;;5.2;4.1;;;;;;;18.88;69.60742;942.0355;;;;
2022/07/16 05:24:29;;;;;;;4.7;4.1;;;;;;;19.18;68.38477;942.0573;;;;
2022/07/16 05:26:54;;;;;;;5.3;4.2;;;;;;;19.2;70.47266;942.0463;;;;
2022/07/16 05:29:19;;;;;;;5.1;4.1;;;;;;;19.34;69.44727;942.0684;;;;
2022/07/16 05:31:46;;;;;;;5.8;4.3;;;;;;;19.15;70.41895;942.0658;;;;
2022/07/16 05:34:11;;;;;;;5.3;4.4;;;;;;;18.88;71.35352;942.0822;;;;
2022/07/16 05:36:40;;;;;;;5.6;4.3;;;;;;;19.06;71.71875;942.1022;;;;
2022/07/16 05:39:05;;;;;;;5;4.2;;;;;;;19.31;71.68945;942.1611;;;;
2022/07/16 05:41:32;;;;;;;5.3;4.2;;;;;;;19.32;71.87793;942.1577;;;;
2022/07/16 05:43:58;;;;;;;5.8;3.9;;;;;;;19.46;67.98438;942.1619;;;;
2022/07/16 05:46:25;;;;;;;6.4;4.2;;;;;;;19.4;69.71191;942.144;;;;
2022/07/16 05:48:50;;;;;;;6.1;4.7;;;;;;;20.01;68.69922;942.1625;;;;
2022/07/16 05:51:15;;;;;;;4.4;4;;;;;;;21.22;64.38379;942.2194;;;;
2022/07/16 05:53:45;;;;;;;4.9;4.3;;;;;;;21.44;61.93262;942.2048;;;;
2022/07/16 05:56:15;;;;;;;4.5;4.1;;;;;;;22.01;58.67383;942.2229;;;;
2022/07/16 05:58:41;;;;;;;4;3.7;;;;;;;21.59;63.03125;942.2656;;;;
2022/07/16 06:01:07;;;;;;;5.5;4.4;;;;;;;21.6;58.98242;942.2888;;;;
2022/07/16 06:03:33;;;;;;;7;4.4;;;;;;;21.83;59.97363;942.2062;;;;
2022/07/16 06:06:01;;;;;;;8.7;4.2;;;;;;;22.36;58.13281;942.2405;;;;
2022/07/16 06:08:26;;;;;;;3.9;3.5;;;;;;;22.89;54.46875;942.2505;;;;
2022/07/16 06:10:52;;;;;;;4.6;3.7;;;;;;;22.97;53.54883;942.2505;;;;
2022/07/16 06:13:17;;;;;;;6.9;4;;;;;;;23.37;54.00977;942.2484;;;;
2022/07/16 06:15:53;;;;;;;5.9;3.9;;;;;;;23.93;52.19434;942.2919;;;;
2022/07/16 06:18:21;;;;;;;5.5;4.1;;;;;;;23.82;54.02832;942.2371;;;;
2022/07/16 06:20:46;;;;;;;4.8;3.8;;;;;;;24.21;50.73047;942.3055;;;;
2022/07/16 06:23:12;;;;;;;5;3.7;;;;;;;23.74;54.30078;942.2587;;;;
2022/07/16 06:25:37;;;;;;;4.2;3.5;;;;;;;24.86;49.10645;942.2261;;;;
2022/07/16 06:28:03;;;;;;;5.6;3.8;;;;;;;24.83;49.5498;942.2793;;;;
2022/07/16 06:30:28;;;;;;;6.1;3.7;;;;;;;24.77;48.64844;942.2023;;;;
2022/07/16 06:32:57;;;;;;;5.7;3.6;;;;;;;24.41;49.5752;942.2239;;;;
2022/07/16 06:35:22;;;;;;;5;3.4;;;;;;;24.72;48.60645;942.2958;;;;
2022/07/16 06:37:49;;;;;;;4.7;3.3;;;;;;;25.07;48.4209;942.2877;;;;
2022/07/16 06:40:14;;;;;;;4.4;3.2;;;;;;;26.09;45.36133;942.2161;;;;
2022/07/16 06:42:41;;;;;;;3.5;3.1;;;;;;;26.13;43.40039;942.2413;;;;
2022/07/16 06:45:06;;;;;;;5;2.8;;;;;;;26.19;42.60352;942.2726;;;;
2022/07/16 06:47:32;;;;;;;3.1;2.8;;;;;;;27.13;41.00879;942.2422;;;;
2022/07/16 06:50:01;;;;;;;5;3;;;;;;;28.29;38.79688;942.2154;;;;
2022/07/16 06:52:31;;;;;;;4.1;2.9;;;;;;;28.71;37.26367;942.1995;;;;
2022/07/16 06:55:03;;;;;;;3.5;2.9;;;;;;;28.01;37.81055;942.1997;;;;
2022/07/16 06:57:33;;;;;;;4.9;2.7;;;;;;;26.88;42.4082;942.1778;;;;
2022/07/16 06:59:58;;;;;;;3.3;2.6;;;;;;;26.61;39.44531;942.2522;;;;
2022/07/16 07:02:27;;;;;;;3.3;2.4;;;;;;;28.16;38.42969;942.2045;;;;
2022/07/16 07:04:57;;;;;;;3.8;2.6;;;;;;;29.12;35.61816;942.2843;;;;
2022/07/16 07:07:22;;;;;;;3.3;2.1;;;;;;;29.33;35.43164;942.3167;;;;
2022/07/16 07:09:48;;;;;;;3.4;2.6;;;;;;;29.41;34.19824;942.2503;;;;
2022/07/16 07:12:13;;;;;;;5;2.5;;;;;;;29.05;36.55273;942.2916;;;;
2022/07/16 07:14:44;;;;;;;4.9;2.8;;;;;;;29.58;34.30762;942.2842;;;;
2022/07/16 07:17:10;;;;;;;3.9;2.4;;;;;;;30.32;34.59082;942.2775;;;;
2022/07/16 07:19:38;;;;;;;3;2.7;;;;;;;29.63;34.9668;942.2106;;;;
2022/07/16 07:22:04;;;;;;;4.5;2.7;;;;;;;28.46;38.95508;942.1898;;;;
2022/07/16 07:24:32;;;;;;;3.3;2.7;;;;;;;30.15;34.09961;942.2197;;;;
2022/07/16 07:26:57;;;;;;;5.8;2.5;;;;;;;29.25;37.80664;942.2045;;;;
2022/07/16 07:29:24;;;;;;;4.2;2.6;;;;;;;30.31;34.27832;942.1433;;;;
2022/07/16 07:31:48;;;;;;;3;2.5;;;;;;;30.2;35.5;942.1778;;;;
2022/07/16 07:34:17;;;;;;;3.8;2.6;;;;;;;29.01;35.22852;942.1113;;;;
2022/07/16 07:36:42;;;;;;;2.4;2.2;;;;;;;29.55;34.70996;942.1064;;;;
2022/07/16 07:39:10;;;;;;;3.5;2.7;;;;;;;28.33;36.875;942.1147;;;;
2022/07/16 07:41:35;;;;;;;5;2.5;;;;;;;29.63;36.75586;942.1476;;;;
2022/07/16 07:44:02;;;;;;;4.6;2.7;;;;;;;31.37;32.34766;942.0722;;;;
2022/07/16 07:46:27;;;;;;;2.6;2.3;;;;;;;32.45;31.21387;941.9995;;;;
2022/07/16 07:48:55;;;;;;;3.3;2.4;;;;;;;31.2;31.30664;941.9601;;;;
2022/07/16 07:51:20;;;;;;;4.6;2.7;;;;;;;32.04;32.89941;941.9703;;;;
2022/07/16 07:53:46;;;;;;;5.9;2.5;;;;;;;33.09;30.29688;942.0021;;;;
2022/07/16 07:56:12;;;;;;;4.3;2.5;;;;;;;32.31;30.84473;941.9231;;;;
2022/07/16 07:58:39;;;;;;;2.2;2;;;;;;;31.48;32.29688;941.9393;;;;
2022/07/16 08:01:04;;;;;;;5.4;2.3;;;;;;;30.83;32.44141;941.9786;;;;
2022/07/16 08:03:30;;;;;;;3.1;2;;;;;;;32.12;31.2627;941.9518;;;;
2022/07/16 08:05:55;;;;;;;2.2;2;;;;;;;34.02;28.05957;941.9802;;;;
2022/07/16 08:08:21;;;;;;;2.5;2.1;;;;;;;34.07;28.92871;941.9642;;;;
2022/07/16 08:10:47;;;;;;;5.1;2.2;;;;;;;34.78;27.22559;941.93;;;;
2022/07/16 08:13:13;;;;;;;2.9;2.1;;;;;;;35.73;26.88477;941.9328;;;;
2022/07/16 08:15:39;;;;;;;4.6;2.2;;;;;;;35.36;25.94434;941.9342;;;;
2022/07/16 08:18:04;;;;;;;3.2;2;;;;;;;35.11;27.29395;941.8799;;;;
2022/07/16 08:20:34;;;;;;;2;1.9;;;;;;;32.84;29.35547;941.8803;;;;
2022/07/16 08:22:59;;;;;;;3.6;1.8;;;;;;;33.49;28.7002;941.8809;;;;
2022/07/16 08:27:52;;;;;;;2.2;1.8;;;;;;;32.89;28.36328;941.8485;;;;
2022/07/16 08:30:29;;;;;;;2.7;2.1;;;;;;;31.84;32.79004;941.8;;;;
2022/07/16 08:33:00;;;;;;;3.7;1.8;;;;;;;30.96;33.76563;941.8039;;;;
2022/07/16 08:35:25;;;;;;;2.8;2.1;;;;;;;30.56;35.52832;941.8;;;;
2022/07/16 08:37:52;;;;;;;2.5;1.7;;;;;;;31.97;31.07227;941.8334;;;;
2022/07/16 08:40:17;;;;;;;4.3;2;;;;;;;30.8;31.92578;941.8447;;;;
2022/07/16 08:42:48;;;;;;;4.8;2.3;;;;;;;30.11;32.8916;941.8889;;;;
2022/07/16 08:45:15;;;;;;;2.8;2;;;;;;;27.36;38.93066;941.8624;;;;
2022/07/16 08:47:49;;;;;;;3.8;2.3;;;;;;;28.72;36.77539;941.8605;;;;
2022/07/16 08:50:20;;;;;;;3.2;1.8;;;;;;;30.57;32.2793;941.8086;;;;
2022/07/16 08:52:46;;;;;;;2.6;1.7;;;;;;;31.37;30.29004;941.7972;;;;
2022/07/16 08:55:11;;;;;;;2.8;2;;;;;;;30.35;32.69434;941.801;;;;
2022/07/16 08:57:37;;;;;;;2.9;1.9;;;;;;;31.31;30.41797;941.7872;;;;
2022/07/16 09:00:07;;;;;;;5.4;1.8;;;;;;;30.88;31.66797;941.7657;;;;
2022/07/16 09:02:31;;;;;;;2.1;1.6;;;;;;;30.71;32.03809;941.8064;;;;
2022/07/16 09:04:57;;;;;;;2.2;1.8;;;;;;;29.91;33.21094;941.8047;;;;
2022/07/16 09:07:22;;;;;;;2.1;1.8;;;;;;;28.4;36.92773;941.7651;;;;
2022/07/16 09:09:48;;;;;;;2.8;1.8;;;;;;;29.16;32.54785;941.738;;;;
2022/07/16 09:12:13;;;;;;;2.1;1.6;;;;;;;29.92;32.86523;941.6806;;;;
2022/07/16 09:14:40;;;;;;;2.7;1.8;;;;;;;29.62;34.80957;941.6682;;;;
2022/07/16 09:17:06;;;;;;;2.4;1.6;;;;;;;31.56;31.06934;941.7099;;;;
2022/07/16 09:19:31;;;;;;;2.5;1.9;;;;;;;30.76;32.44824;941.5992;;;;
2022/07/16 09:21:59;;;;;;;4.7;2.1;;;;;;;31.53;32.65918;941.6877;;;;
2022/07/16 09:24:23;;;;;;;2.2;1.8;;;;;;;33;29.49805;941.7509;;;;
2022/07/16 09:26:50;;;;;;;2.9;2;;;;;;;31.82;31.69824;941.694;;;;
2022/07/16 09:29:15;;;;;;;2.3;2.1;;;;;;;28.88;35.24121;941.7759;;;;
2022/07/16 09:31:42;;;;;;;2.2;1.9;;;;;;;29.6;34.70117;941.7991;;;;
2022/07/16 09:34:07;;;;;;;5;2.2;;;;;;;28.63;36.26953;941.7767;;;;
2022/07/16 09:36:35;;;;;;;3.2;2;;;;;;;30.5;33.19434;941.6674;;;;
2022/07/16 09:39:00;;;;;;;2.9;2.2;;;;;;;29.36;36.00586;941.7321;;;;
2022/07/16 09:41:28;;;;;;;3.2;1.9;;;;;;;29;36.00098;941.688;;;;
2022/07/16 09:43:53;;;;;;;4.6;2.1;;;;;;;28.82;35.74805;941.6696;;;;
2022/07/16 09:46:21;;;;;;;2.8;2;;;;;;;28.56;37.30957;941.6882;;;;
2022/07/16 09:48:47;;;;;;;4.9;1.8;;;;;;;29.43;35.84473;941.6556;;;;
2022/07/16 09:51:12;;;;;;;4.1;2;;;;;;;29.88;33.8877;941.64;;;;
2022/07/16 09:53:40;;;;;;;3.5;2.1;;;;;;;29.51;35.31445;941.6298;;;;
2022/07/16 09:56:03;;;;;;;2.3;1.9;;;;;;;29.55;34.84082;941.6376;;;;
2022/07/16 09:58:31;;;;;;;2.7;2;;;;;;;28.95;37.13965;941.6287;;;;
2022/07/16 10:00:55;;;;;;;3.3;2.2;;;;;;;28.07;38.73047;941.6178;;;;
2022/07/16 10:03:24;;;;;;;2.9;2;;;;;;;27.57;41.20313;941.6233;;;;
2022/07/16 10:05:49;;;;;;;3.2;2;;;;;;;27.66;40.4873;941.6168;;;;
2022/07/16 10:08:17;;;;;;;2.3;1.9;;;;;;;28.57;38.23828;941.6565;;;;
2022/07/16 10:10:42;;;;;;;2.3;1.9;;;;;;;28.94;36.26953;941.6365;;;;
2022/07/16 10:13:09;;;;;;;3.8;2;;;;;;;28.92;37.89941;941.6113;;;;
2022/07/16 10:15:36;;;;;;;2.2;2;;;;;;;28.65;39.23242;941.5595;;;;
2022/07/16 10:18:01;;;;;;;5.3;2.1;;;;;;;28.51;39.5293;941.6146;;;;
2022/07/16 10:20:28;;;;;;;2.5;2.3;;;;;;;27.47;41.90625;941.5539;;;;
2022/07/16 10:22:53;;;;;;;4.4;2.3;;;;;;;27.48;41.66992;941.4592;;;;
2022/07/16 10:25:19;;;;;;;2.6;1.8;;;;;;;27.84;38.91309;941.5452;;;;
2022/07/16 10:27:44;;;;;;;4.7;2.1;;;;;;;28.36;38.56543;941.492;;;;
2022/07/16 10:30:13;;;;;;;3.9;2.1;;;;;;;28.15;40.0918;941.5269;;;;
2022/07/16 10:32:40;;;;;;;3.1;2.4;;;;;;;27.97;38.72168;941.546;;;;
2022/07/16 10:35:08;;;;;;;4.8;2.3;;;;;;;28.93;37.43555;941.5421;;;;
2022/07/16 10:37:33;;;;;;;4.2;2;;;;;;;29.43;36.78613;941.5578;;;;
2022/07/16 10:40:04;;;;;;;2.9;2;;;;;;;29.82;35.38574;941.538;;;;
2022/07/16 10:42:29;;;;;;;2.2;2;;;;;;;30.05;34.27051;941.4651;;;;
2022/07/16 10:44:56;;;;;;;3.3;2.2;;;;;;;28.78;37.28027;941.5137;;;;
2022/07/16 10:47:21;;;;;;;3.5;2.2;;;;;;;28.16;39.62891;941.4916;;;;
2022/07/16 10:49:46;;;;;;;3.2;2.2;;;;;;;27.57;39.50684;941.5388;;;;
2022/07/16 10:52:14;;;;;;;3.1;2.3;;;;;;;27.74;39.58105;941.4578;;;;
2022/07/16 10:54:39;;;;;;;4.5;2.5;;;;;;;27.45;41.12109;941.4757;;;;
2022/07/16 10:57:04;;;;;;;5.4;2.4;;;;;;;27.76;40.04492;941.4684;;;;
2022/07/16 10:59:30;;;;;;;3.2;2.2;;;;;;;28.13;38.80664;941.4903;;;;
2022/07/16 11:01:55;;;;;;;4.3;2.3;;;;;;;28.23;38.79199;941.4504;;;;
2022/07/16 11:04:23;;;;;;;2.6;2.2;;;;;;;27.46;40.9082;941.503;;;;
2022/07/16 11:06:48;;;;;;;4.3;2.6;;;;;;;26.69;45.03125;941.5108;;;;
2022/07/16 11:09:16;;;;;;;3.7;2.3;;;;;;;26.43;45.59766;941.5284;;;;
2022/07/16 11:11:41;;;;;;;3.2;2.2;;;;;;;26.89;42.20703;941.6028;;;;
2022/07/16 11:14:09;;;;;;;4.5;2.3;;;;;;;26.75;43.39063;941.53;;;;
2022/07/16 11:16:32;;;;;;;2.8;2.2;;;;;;;26.89;44.24512;941.5701;;;;
2022/07/16 11:19:01;;;;;;;4.2;2.4;;;;;;;27.09;40.70898;941.5561;;;;
2022/07/16 11:21:30;;;;;;;2.4;2.1;;;;;;;27.06;42.75684;941.6002;;;;
2022/07/16 11:23:55;;;;;;;4;2.4;;;;;;;27.03;43.18066;941.6063;;;;
2022/07/16 11:26:21;;;;;;;3.2;2.2;;;;;;;27.01;41.94629;941.6315;;;;
2022/07/16 11:28:46;;;;;;;2.9;2.2;;;;;;;27.29;40.73926;941.5633;;;;
2022/07/16 11:31:13;;;;;;;2.6;2.1;;;;;;;27.43;41.6416;941.6375;;;;
2022/07/16 11:33:38;;;;;;;2.9;2.2;;;;;;;27.54;39.78906;941.6808;;;;
2022/07/16 11:36:06;;;;;;;3;2.3;;;;;;;27.52;41.08008;941.6652;;;;
2022/07/16 11:38:31;;;;;;;4.2;2.3;;;;;;;27.61;39.56836;941.6614;;;;
2022/07/16 11:40:58;;;;;;;5.2;2.4;;;;;;;27.52;40.79492;941.7;;;;
2022/07/16 11:43:23;;;;;;;3.6;2.4;;;;;;;27;43.42578;941.6682;;;;
2022/07/16 11:45:49;;;;;;;4.8;2.4;;;;;;;26.93;43.24219;941.6816;;;;
2022/07/16 11:48:13;;;;;;;4;2.5;;;;;;;26.8;42.19824;941.5912;;;;
2022/07/16 11:50:41;;;;;;;3.9;2.6;;;;;;;27.04;40.24219;941.6457;;;;
2022/07/16 11:53:06;;;;;;;2.3;2.1;;;;;;;27.34;40.19727;941.6503;;;;
2022/07/16 11:55:31;;;;;;;2.4;2.2;;;;;;;27.53;40.59375;941.6333;;;;
2022/07/16 11:57:58;;;;;;;2.6;2.3;;;;;;;27.54;41.81738;941.6304;;;;
2022/07/16 12:00:23;;;;;;;3.8;2.5;;;;;;;26.77;42.51563;941.5101;;;;
2022/07/16 12:02:51;;;;;;;3.4;2.8;;;;;;;26.8;42.94531;941.5831;;;;
2022/07/16 12:05:20;;;;;;;4;2.8;;;;;;;27.18;44.92578;941.5809;;;;
2022/07/16 12:07:40;;;;;;;3.6;2.3;;;;;;;27.37;42.40723;941.5611;;;;
2022/07/16 12:10:05;;;;;;;3.3;2.6;;;;;;;27.53;41.56738;941.5556;;;;
2022/07/16 12:12:36;;;;;;;3;2.4;;;;;;;27.46;45.35742;941.5193;;;;
2022/07/16 12:15:03;;;;;;;5.4;2.6;;;;;;;27.71;42.58203;941.5179;;;;
2022/07/16 12:17:28;;;;;;;2.5;2.3;;;;;;;27.87;42.0498;941.5225;;;;
2022/07/16 12:19:53;;;;;;;3.2;2.5;;;;;;;27.96;38.89844;941.5212;;;;
2022/07/16 12:22:19;;;;;;;3.4;2.6;;;;;;;27.79;42.01953;941.5655;;;;
2022/07/16 12:24:45;;;;;;;3.7;2.5;;;;;;;27.99;40.5293;941.5314;;;;
2022/07/16 12:27:10;;;;;;;3;2.7;;;;;;;28.02;39.11816;941.4738;;;;
2022/07/16 12:29:39;;;;;;;3.3;2.7;;;;;;;27.89;43.92871;941.4412;;;;
2022/07/16 12:32:05;;;;;;;2.8;2.3;;;;;;;27.78;43.20508;941.4311;;;;
2022/07/16 12:34:30;;;;;;;5.4;3;;;;;;;27.83;40.84668;941.4048;;;;
2022/07/16 12:36:56;;;;;;;3.7;2.5;;;;;;;27.77;44.08301;941.3711;;;;
2022/07/16 12:39:20;;;;;;;3.2;2.5;;;;;;;27.76;41.73145;941.4165;;;;
2022/07/16 12:41:50;;;;;;;4.4;3;;;;;;;27.18;44.16797;941.3953;;;;
2022/07/16 12:44:15;;;;;;;3.8;2.3;;;;;;;27.36;42.62012;941.3748;;;;
2022/07/16 12:46:44;;;;;;;6.4;3.6;;;;;;;27.52;40.41504;941.3248;;;;
2022/07/16 12:49:09;;;;;;;2.8;2.3;;;;;;;27.63;42.7998;941.3766;;;;
2022/07/16 12:51:35;;;;;;;4.7;2.5;;;;;;;27.47;43.5791;941.4073;;;;
2022/07/16 12:54:00;;;;;;;2.8;2.3;;;;;;;27.54;42.63574;941.4242;;;;
2022/07/16 12:58:50;;;;;;;2.8;2.6;;;;;;;27.85;40.87305;941.3605;;;;
2022/07/16 13:01:15;;;;;;;4.6;2.5;;;;;;;27.96;40.84766;941.3703;;;;
2022/07/16 13:03:42;;;;;;;3.4;2.8;;;;;;;27.72;42.78516;941.3842;;;;
2022/07/16 13:06:07;;;;;;;3.4;2.7;;;;;;;27.72;42.42871;941.3292;;;;
2022/07/16 13:08:35;;;;;;;3.7;2.7;;;;;;;27.18;45.88574;941.3275;;;;
2022/07/16 13:10:59;;;;;;;3.9;2.6;;;;;;;27.15;45.08887;941.2522;;;;
2022/07/16 13:13:24;;;;;;;4.4;3;;;;;;;27.2;44.6084;941.3605;;;;
2022/07/16 13:15:56;;;;;;;4.9;3;;;;;;;26.78;46.62793;941.353;;;;
2022/07/16 13:18:23;;;;;;;3.1;2.7;;;;;;;26.54;46.02246;941.3348;;;;
2022/07/16 13:20:48;;;;;;;3.4;2.8;;;;;;;26.58;45.50586;941.3533;;;;
2022/07/16 13:23:16;;;;;;;3.8;3;;;;;;;26.62;45.08301;941.3194;;;;
2022/07/16 13:25:41;;;;;;;7.6;3.1;;;;;;;26.88;44.94336;941.3803;;;;
2022/07/16 13:28:09;;;;;;;3.2;2.7;;;;;;;26.78;46.48633;941.2841;;;;
2022/07/16 13:30:34;;;;;;;4.3;2.7;;;;;;;26.66;46.48535;941.3453;;;;
2022/07/16 13:32:59;;;;;;;3.8;3.2;;;;;;;26.69;46.7959;941.3692;;;;
2022/07/16 13:35:28;;;;;;;4;3.3;;;;;;;26.88;45.01465;941.3639;;;;
2022/07/16 13:37:58;;;;;;;5.2;2.8;;;;;;;27.06;46.77539;941.3555;;;;
2022/07/16 13:40:24;;;;;;;4.8;2.5;;;;;;;27.03;45.36133;941.3142;;;;
2022/07/16 13:42:52;;;;;;;4.5;3;;;;;;;27.02;43.81934;941.385;;;;
2022/07/16 13:45:17;;;;;;;5.8;2.8;;;;;;;26.83;45.37695;941.33;;;;
2022/07/16 13:47:45;;;;;;;4.8;3;;;;;;;26.92;45.05469;941.4164;;;;
2022/07/16 13:50:12;;;;;;;5.5;3.2;;;;;;;27.07;44.14551;941.4578;;;;
2022/07/16 13:52:42;;;;;;;3.8;2.8;;;;;;;26.92;45.62305;941.4042;;;;
2022/07/16 13:55:16;;;;;;;3.7;2.7;;;;;;;26.96;44.85645;941.4104;;;;
2022/07/16 14:00:13;;;;;;;5.8;3;;;;;;;25.95;46.56445;941.3211;;;;
2022/07/16 14:02:42;;;;;;;4.1;2.8;;;;;;;25.81;48.32324;941.3736;;;;
2022/07/16 14:05:07;;;;;;;4;3.1;;;;;;;25.49;48.74902;941.4351;;;;
2022/07/16 14:07:36;;;;;;;4.8;2.8;;;;;;;25.86;46.80371;941.2907;;;;
2022/07/16 14:10:10;;;;;;;4.6;2.8;;;;;;;25.64;49.06152;941.3798;;;;
2022/07/16 14:12:40;;;;;;;6.3;3.1;;;;;;;25.48;49.2207;941.3719;;;;
2022/07/16 14:15:14;;;;;;;3.5;2.8;;;;;;;25.81;46.82227;941.4102;;;;
2022/07/16 14:17:42;;;;;;;5.2;2.6;;;;;;;26.04;47.80566;941.4166;;;;
2022/07/16 14:20:18;;;;;;;4.9;3;;;;;;;25.67;49.12402;941.4626;;;;
2022/07/16 14:22:49;;;;;;;5.4;3.1;;;;;;;25.56;50.76563;941.5476;;;;
2022/07/16 14:25:19;;;;;;;3.7;2.9;;;;;;;25.74;47.90234;941.48;;;;
2022/07/16 14:27:44;;;;;;;3.5;3;;;;;;;25.74;48.78906;941.5159;;;;
2022/07/16 14:30:17;;;;;;;3;2.7;;;;;;;25.59;48.20508;941.6133;;;;
2022/07/16 14:32:44;;;;;;;5.8;3;;;;;;;25.9;47.35254;941.5873;;;;
2022/07/16 14:35:08;;;;;;;6.4;3;;;;;;;26;47.34961;941.61;;;;
2022/07/16 14:37:34;;;;;;;4.9;3;;;;;;;25.83;49.21289;941.5849;;;;
2022/07/16 14:40:00;;;;;;;4.9;3;;;;;;;25.82;47.58008;941.5613;;;;
2022/07/16 14:42:25;;;;;;;4.6;3.1;;;;;;;25.69;48.61816;941.6069;;;;